sensor_id;sensor_type;location;lat;lon;timestamp;P1;durP1;ratioP1;P2;durP2;ratioP2
15915;SDS011;8057;47.830;-3.870;2023-04-01T00:05:08;23.83;;;5.80;;
15915;SDS011;8057;47.830;-3.870;2023-04-01T00:09:35;20.07;;;4.57;;
15915;SDS011;8057;47.830;-3.870;2023-04-01T00:13:55;15.77;;;4.50;;
15915;SDS011;8057;47.830;-3.870;2023-04-01T00:18:17;19.80;;;4.40;;
15915;SDS011;8057;47.830;-3.870;2023-04-01T00:23:13;18.47;;;5.03;;
15915;SDS011;8057;47.830;-3.870;2023-04-01T00:55:03;20.80;;;5.33;;
15915;SDS011;8057;47.830;-3.870;2023-04-01T00:59:50;24.93;;;4.93;;
15915;SDS011;8057;47.830;-3.870;2023-04-01T01:04:35;27.37;;;5.73;;
15915;SDS011;8057;47.830;-3.870;2023-04-01T01:14:17;24.73;;;5.73;;
15915;SDS011;8057;47.830;-3.870;2023-04-01T01:18:44;22.70;;;5.43;;
15915;SDS011;8057;47.830;-3.870;2023-04-01T01:28:32;22.73;;;5.40;;
15915;SDS011;8057;47.830;-3.870;2023-04-01T01:33:48;24.43;;;5.33;;
15915;SDS011;8057;47.830;-3.870;2023-04-01T01:43:24;23.77;;;5.07;;
15915;SDS011;8057;47.830;-3.870;2023-04-01T01:47:46;20.37;;;4.83;;
15915;SDS011;8057;47.830;-3.870;2023-04-01T01:57:23;23.53;;;4.83;;
15915;SDS011;8057;47.830;-3.870;2023-04-01T02:32:45;20.40;;;4.67;;
15915;SDS011;8057;47.830;-3.870;2023-04-01T02:37:27;18.17;;;4.10;;
15915;SDS011;8057;47.830;-3.870;2023-04-01T02:41:57;18.87;;;4.10;;
15915;SDS011;8057;47.830;-3.870;2023-04-01T02:46:17;21.47;;;3.90;;
15915;SDS011;8057;47.830;-3.870;2023-04-01T02:51:10;21.83;;;4.50;;
15915;SDS011;8057;47.830;-3.870;2023-04-01T02:55:41;19.97;;;5.27;;
15915;SDS011;8057;47.830;-3.870;2023-04-01T03:00:28;24.63;;;4.63;;
15915;SDS011;8057;47.830;-3.870;2023-04-01T03:05:07;21.07;;;4.57;;
15915;SDS011;8057;47.830;-3.870;2023-04-01T03:09:24;21.60;;;4.57;;
15915;SDS011;8057;47.830;-3.870;2023-04-01T03:13:35;15.23;;;4.13;;
15915;SDS011;8057;47.830;-3.870;2023-04-01T03:18:44;12.63;;;3.33;;
15915;SDS011;8057;47.830;-3.870;2023-04-01T03:23:30;19.53;;;4.43;;
15915;SDS011;8057;47.830;-3.870;2023-04-01T03:28:24;21.57;;;3.63;;
15915;SDS011;8057;47.830;-3.870;2023-04-01T03:33:01;17.50;;;3.63;;
15915;SDS011;8057;47.830;-3.870;2023-04-01T03:37:51;18.90;;;4.27;;
15915;SDS011;8057;47.830;-3.870;2023-04-01T03:42:41;19.37;;;4.77;;
15915;SDS011;8057;47.830;-3.870;2023-04-01T03:47:45;21.70;;;4.60;;
15915;SDS011;8057;47.830;-3.870;2023-04-01T03:52:11;15.47;;;3.90;;
15915;SDS011;8057;47.830;-3.870;2023-04-01T03:56:41;24.33;;;4.73;;
15915;SDS011;8057;47.830;-3.870;2023-04-01T04:01:00;21.53;;;4.10;;
15915;SDS011;8057;47.830;-3.870;2023-04-01T04:05:26;20.70;;;5.10;;
15915;SDS011;8057;47.830;-3.870;2023-04-01T04:09:36;21.70;;;4.63;;
15915;SDS011;8057;47.830;-3.870;2023-04-01T04:13:47;16.87;;;4.73;;
15915;SDS011;8057;47.830;-3.870;2023-04-01T04:18:05;25.87;;;4.67;;
15915;SDS011;8057;47.830;-3.870;2023-04-01T04:26:59;18.97;;;3.97;;
15915;SDS011;8057;47.830;-3.870;2023-04-01T04:31:23;16.17;;;3.50;;
15915;SDS011;8057;47.830;-3.870;2023-04-01T04:35:36;19.30;;;3.53;;
15915;SDS011;8057;47.830;-3.870;2023-04-01T04:39:51;17.27;;;3.70;;
15915;SDS011;8057;47.830;-3.870;2023-04-01T04:44:28;12.23;;;3.03;;
15915;SDS011;8057;47.830;-3.870;2023-04-01T04:49:12;18.00;;;4.10;;
15915;SDS011;8057;47.830;-3.870;2023-04-01T04:53:22;14.67;;;3.70;;
15915;SDS011;8057;47.830;-3.870;2023-04-01T04:57:35;16.23;;;3.33;;
15915;SDS011;8057;47.830;-3.870;2023-04-01T05:01:48;17.40;;;4.20;;
15915;SDS011;8057;47.830;-3.870;2023-04-01T05:06:16;15.17;;;4.03;;
15915;SDS011;8057;47.830;-3.870;2023-04-01T05:10:40;10.73;;;2.90;;
15915;SDS011;8057;47.830;-3.870;2023-04-01T05:14:53;16.73;;;3.90;;
15915;SDS011;8057;47.830;-3.870;2023-04-01T05:19:12;12.50;;;3.20;;
15915;SDS011;8057;47.830;-3.870;2023-04-01T05:23:42;13.30;;;3.07;;
15915;SDS011;8057;47.830;-3.870;2023-04-01T05:27:54;12.30;;;3.47;;
15915;SDS011;8057;47.830;-3.870;2023-04-01T05:32:37;17.27;;;3.13;;
15915;SDS011;8057;47.830;-3.870;2023-04-01T05:37:19;10.57;;;3.57;;
15915;SDS011;8057;47.830;-3.870;2023-04-01T05:41:30;15.87;;;3.23;;
15915;SDS011;8057;47.830;-3.870;2023-04-01T05:45:41;14.37;;;3.23;;
15915;SDS011;8057;47.830;-3.870;2023-04-01T05:55:09;13.83;;;2.87;;
15915;SDS011;8057;47.830;-3.870;2023-04-01T05:59:36;14.27;;;3.30;;
15915;SDS011;8057;47.830;-3.870;2023-04-01T06:03:47;16.33;;;3.63;;
15915;SDS011;8057;47.830;-3.870;2023-04-01T06:08:29;12.70;;;3.47;;
15915;SDS011;8057;47.830;-3.870;2023-04-01T06:12:54;16.57;;;4.20;;
15915;SDS011;8057;47.830;-3.870;2023-04-01T06:17:26;15.33;;;3.97;;
15915;SDS011;8057;47.830;-3.870;2023-04-01T06:26:37;24.23;;;4.93;;
15915;SDS011;8057;47.830;-3.870;2023-04-01T06:31:05;15.57;;;3.30;;
15915;SDS011;8057;47.830;-3.870;2023-04-01T06:40:22;22.07;;;4.33;;
15915;SDS011;8057;47.830;-3.870;2023-04-01T06:55:32;17.80;;;3.67;;
15915;SDS011;8057;47.830;-3.870;2023-04-01T07:00:04;14.57;;;2.17;;
15915;SDS011;8057;47.830;-3.870;2023-04-01T07:05:11;8.77;;;1.70;;
15915;SDS011;8057;47.830;-3.870;2023-04-01T07:09:56;8.57;;;2.17;;
15915;SDS011;8057;47.830;-3.870;2023-04-01T07:19:42;12.13;;;2.80;;
15915;SDS011;8057;47.830;-3.870;2023-04-01T07:24:15;11.00;;;2.20;;
15915;SDS011;8057;47.830;-3.870;2023-04-01T07:28:30;12.33;;;3.17;;
15915;SDS011;8057;47.830;-3.870;2023-04-01T07:37:27;10.50;;;2.33;;
15915;SDS011;8057;47.830;-3.870;2023-04-01T07:41:44;12.43;;;2.70;;
15915;SDS011;8057;47.830;-3.870;2023-04-01T07:46:15;13.53;;;2.77;;
15915;SDS011;8057;47.830;-3.870;2023-04-01T07:51:15;11.33;;;2.53;;
15915;SDS011;8057;47.830;-3.870;2023-04-01T08:38:05;6.17;;;1.70;;
15915;SDS011;8057;47.830;-3.870;2023-04-01T08:56:53;10.30;;;2.27;;
15915;SDS011;8057;47.830;-3.870;2023-04-01T09:01:51;9.87;;;2.43;;
15915;SDS011;8057;47.830;-3.870;2023-04-01T09:06:45;7.73;;;2.47;;
15915;SDS011;8057;47.830;-3.870;2023-04-01T09:11:30;8.83;;;2.27;;
15915;SDS011;8057;47.830;-3.870;2023-04-01T09:16:03;8.77;;;2.10;;
15915;SDS011;8057;47.830;-3.870;2023-04-01T09:31:23;9.70;;;2.60;;
15915;SDS011;8057;47.830;-3.870;2023-04-01T09:36:22;16.97;;;3.63;;
15915;SDS011;8057;47.830;-3.870;2023-04-01T09:47:04;7.37;;;1.73;;
15915;SDS011;8057;47.830;-3.870;2023-04-01T09:51:32;11.17;;;2.83;;
15915;SDS011;8057;47.830;-3.870;2023-04-01T09:56:13;12.47;;;2.77;;
15915;SDS011;8057;47.830;-3.870;2023-04-01T10:05:25;10.73;;;2.37;;
15915;SDS011;8057;47.830;-3.870;2023-04-01T10:09:57;9.93;;;2.27;;
15915;SDS011;8057;47.830;-3.870;2023-04-01T10:15:00;10.70;;;2.60;;
15915;SDS011;8057;47.830;-3.870;2023-04-01T10:40:38;6.87;;;2.17;;
15915;SDS011;8057;47.830;-3.870;2023-04-01T10:50:16;9.60;;;2.40;;
15915;SDS011;8057;47.830;-3.870;2023-04-01T10:55:01;9.37;;;2.50;;
15915;SDS011;8057;47.830;-3.870;2023-04-01T11:14:02;15.17;;;4.43;;
15915;SDS011;8057;47.830;-3.870;2023-04-01T11:18:43;10.93;;;2.70;;
15915;SDS011;8057;47.830;-3.870;2023-04-01T14:49:24;5.70;;;1.77;;
15915;SDS011;8057;47.830;-3.870;2023-04-01T14:53:55;10.87;;;2.07;;
15915;SDS011;8057;47.830;-3.870;2023-04-01T14:58:11;2.73;;;1.33;;
15915;SDS011;8057;47.830;-3.870;2023-04-01T15:02:44;5.47;;;1.47;;
15915;SDS011;8057;47.830;-3.870;2023-04-01T15:07:09;4.53;;;1.63;;
15915;SDS011;8057;47.830;-3.870;2023-04-01T15:11:32;8.43;;;1.50;;
15915;SDS011;8057;47.830;-3.870;2023-04-01T15:15:59;4.30;;;1.43;;
15915;SDS011;8057;47.830;-3.870;2023-04-01T15:20:23;6.50;;;1.93;;
15915;SDS011;8057;47.830;-3.870;2023-04-01T15:25:03;6.37;;;1.70;;
15915;SDS011;8057;47.830;-3.870;2023-04-01T15:34:32;4.47;;;1.27;;
15915;SDS011;8057;47.830;-3.870;2023-04-01T15:38:52;7.43;;;2.20;;
15915;SDS011;8057;47.830;-3.870;2023-04-01T15:43:15;6.60;;;1.97;;
15915;SDS011;8057;47.830;-3.870;2023-04-01T15:47:40;7.97;;;1.97;;
15915;SDS011;8057;47.830;-3.870;2023-04-01T15:52:05;6.63;;;1.87;;
15915;SDS011;8057;47.830;-3.870;2023-04-01T15:56:28;6.97;;;2.43;;
15915;SDS011;8057;47.830;-3.870;2023-04-01T16:06:13;7.40;;;1.90;;
15915;SDS011;8057;47.830;-3.870;2023-04-01T16:10:46;4.60;;;1.57;;
15915;SDS011;8057;47.830;-3.870;2023-04-01T16:15:21;5.63;;;1.80;;
15915;SDS011;8057;47.830;-3.870;2023-04-01T16:28:59;5.37;;;1.20;;
15915;SDS011;8057;47.830;-3.870;2023-04-01T16:33:19;4.10;;;1.20;;
15915;SDS011;8057;47.830;-3.870;2023-04-01T16:37:43;5.53;;;1.57;;
15915;SDS011;8057;47.830;-3.870;2023-04-01T16:42:11;5.50;;;1.70;;
15915;SDS011;8057;47.830;-3.870;2023-04-01T17:15:20;5.73;;;1.30;;
15915;SDS011;8057;47.830;-3.870;2023-04-01T21:14:27;10.83;;;2.80;;
15915;SDS011;8057;47.830;-3.870;2023-04-01T23:01:13;5.30;;;2.00;;
15915;SDS011;8057;47.830;-3.870;2023-04-01T23:06:03;8.60;;;2.20;;
15915;SDS011;8057;47.830;-3.870;2023-04-01T23:16:57;6.83;;;2.20;;
